Shepardsville, Indiana
Current Conditions -  °F | °C
As of 9:53 PM on Sunday 21 Dec 2014 (Local Time) from KHUF Reporting Station
Clear Clear  
Wind Chill: 24°   Ceiling: Unl
Heat Index: 30°   Visibility: 9mi
Dew Point: 26°   Wind: 6mph
Humidity: 85%   Direction: 110°ESE
Pressure: 30.08"   Gusts: NA
Location:  39.6°N, 87.42°W
Report Text: KHUF 220253Z 11005KT 9SM CLR M01/M03 A3008 RMK AO2 SLP193 T10111033 58008
Loading
Personal Weather Stations






























Interactive Weather Map New forecast layout! Learn more

10-Day Weather Forecast

Advertisements
Track Severe Weather on mobile